Latest Weather Observations for Mount William

IDV60801

Issued at 6:02 pm EDT Sunday 1 February 2015 (issued every 30 minutes, with the page automatically refreshed every 10 minutes)

About weather observations | Map of weather stations | Latest weather observations for VIC | Other Formats
Station Details ID: 079103 Name: MOUNT WILLIAM Lat: -37.30 Lon: 142.60 Height: 1150.0 m
Data from the previous 72 hours. | See also: Recent months at Mount William
Date/Time
EDT
Temp
°C
App
Temp
°C
Dew
Point
Rel
Hum
%
Delta-T
°C
Wind Press
QNH
hPa
Press
MSL
hPa
Rain
since 9 am
mm
Dir
 
Spd
km/h
Gust
km/h
Spd
kts
Gust
kts
01/06:00pm 7.7 2.5 7.4 98 0.2 SSW 24 44 13 24 - - 0.0
01/05:30pm 8.3 3.0 6.8 90 0.7 SSW 24 41 13 22 - - 0.0
01/05:00pm 9.1 4.6 6.9 86 1.1 SSW 20 44 11 24 - - 0.0
01/04:30pm 9.7 4.7 6.4 80 1.6 SSW 22 41 12 22 - - 0.0
01/04:10pm 9.7 3.6 6.8 82 1.5 SSW 28 46 15 25 - - 0.0
01/04:00pm 9.3 4.4 6.7 84 1.3 SSW 22 35 12 19 - - 0.0
01/03:32pm 10.1 4.0 6.6 79 1.8 SSW 28 48 15 26 - - 0.0
01/03:30pm 10.1 3.6 6.6 79 1.8 SSW 30 48 16 26 - - 0.0
01/03:00pm 10.5 4.0 6.6 77 2.0 SSW 30 50 16 27 - - 0.0
01/02:30pm 9.8 2.3 6.5 80 1.6 SSW 35 54 19 29 - - 0.0
01/02:00pm 9.9 3.4 6.6 80 1.7 SSW 30 54 16 29 - - 0.0
01/01:30pm 9.9 3.0 6.6 80 1.7 SSW 32 54 17 29 - - 0.0
01/01:01pm 8.7 1.7 5.8 82 1.4 SSW 32 54 17 29 - - 0.0
01/01:00pm 8.9 1.9 5.8 81 1.5 SSW 32 48 17 26 - - 0.0
01/12:30pm 9.1 4.7 9.0 99 0.1 SSW 22 33 12 18 - - 0.0
01/12:00pm 8.3 2.9 8.2 99 0.1 SSW 26 44 14 24 - - 0.0
01/11:30am 6.8 0.0 6.7 99 0.0 SSW 32 57 17 31 - - 0.0
01/11:24am 6.2 -1.0 6.1 99 0.0 SSW 33 57 18 31 - - 0.0
01/11:00am 5.9 -0.8 5.8 99 0.0 SSW 30 44 16 24 - - 0.0
01/10:30am 5.2 -2.6 5.1 99 0.0 SSW 35 54 19 29 - - 0.0
01/10:03am 5.1 -3.4 5.0 99 0.0 SSW 39 57 21 31 - - 0.0
01/10:00am 4.9 -4.1 4.8 99 0.0 SSW 41 57 22 31 - - 0.0
01/09:30am 4.7 -5.6 4.6 99 0.0 S 48 69 26 37 - - 0.0
01/09:07am 4.7 -3.9 4.6 99 0.0 S 39 57 21 31 - - 0.0
01/09:00am 4.7 -4.3 4.6 99 0.0 S 41 56 22 30 - - 0.0
01/08:30am 4.5 -5.1 4.4 99 0.0 SSW 44 61 24 33 - - 0.0
01/08:00am 4.3 -5.7 4.2 99 0.0 SSW 46 67 25 36 - - 0.0
01/07:54am 4.2 -5.5 4.1 99 0.0 SSW 44 67 24 36 - - 0.0
01/07:30am 4.1 -5.6 4.0 99 0.0 SSW 44 63 24 34 - - 0.0
01/07:21am 4.0 -5.7 3.9 99 0.0 SSW 44 63 24 34 - - 0.0
01/07:00am 4.2 -6.2 4.1 99 0.0 SSW 48 67 26 36 - - 0.0
01/06:52am 4.2 -5.8 4.1 99 0.0 SSW 46 65 25 35 - - 0.0
01/06:30am 4.2 -6.2 4.1 99 0.0 SSW 48 65 26 35 - - 0.0
01/06:06am 4.2 -7.0 4.1 99 0.0 SSW 52 74 28 40 - - 0.0
01/06:00am 4.1 -6.7 4.0 99 0.0 SSW 50 69 27 37 - - 0.0
01/05:30am 4.3 -5.7 4.2 99 0.0 SSW 46 67 25 36 - - 0.0
01/05:00am 4.5 -5.1 4.4 99 0.0 SSW 44 67 24 36 - - 0.0
01/04:30am 4.8 -3.4 4.7 99 0.0 SSW 37 59 20 32 - - 0.0
01/04:00am 4.6 -4.4 4.5 99 0.0 SSW 41 61 22 33 - - 0.0
01/03:30am 4.5 -4.9 4.4 99 0.0 SSW 43 63 23 34 - - 0.0
01/03:00am 4.8 -4.6 4.7 99 0.0 SSW 43 63 23 34 - - 0.0
01/02:30am 4.7 -5.2 4.6 99 0.0 SSW 46 67 25 36 - - 0.0
01/02:21am 4.8 -5.1 4.7 99 0.0 SSW 46 67 25 36 - - 0.0
01/02:00am 5.0 -4.9 4.9 99 0.0 SSW 46 63 25 34 - - 0.0
01/01:30am 5.1 -4.4 5.0 99 0.0 SSW 44 63 24 34 - - 0.0
01/01:00am 4.6 -5.7 4.5 99 0.0 SSW 48 67 26 36 - - 0.0
01/12:30am 5.1 -4.4 5.0 99 0.0 S 44 63 24 34 - - 0.0
01/12:00am 4.9 -4.1 4.8 99 0.0 S 41 61 22 33 - - 0.0
 
Date/Time
EDT
Temp
°C
App
Temp
°C
Dew
Point
Rel
Hum
%
Delta-T
°C
Wind Press
QNH
hPa
Press
MSL
hPa
Rain
since 9 am
mm
Dir
 
Spd
km/h
Gust
km/h
Spd
kts
Gust
kts
31/11:33pm 4.8 -3.0 4.7 99 0.0 S 35 59 19 32 - - 0.0
31/11:30pm 4.9 -2.9 4.8 99 0.0 S 35 48 19 26 - - 0.0
31/11:00pm 5.6 -1.7 5.5 99 0.0 SSW 33 54 18 29 - - 0.0
31/10:31pm 5.4 -1.9 5.3 99 0.0 SSW 33 54 18 29 - - 0.0
31/10:30pm 5.5 -2.2 5.4 99 0.0 SSW 35 54 19 29 - - 0.0
31/10:20pm 5.2 -2.9 5.1 99 0.0 SSW 37 56 20 30 - - 0.0
31/10:00pm 5.4 -2.7 5.3 99 0.0 SSW 37 54 20 29 - - 0.0
31/09:30pm 6.2 -0.8 6.1 99 0.0 SSW 32 54 17 29 - - 0.0
31/09:00pm 6.2 -1.3 6.1 99 0.0 SSW 35 56 19 30 - - 0.0
31/08:43pm 6.2 -2.1 6.1 99 0.0 SSW 39 57 21 31 - - 0.0
31/08:30pm 6.2 -2.1 6.1 99 0.0 SSW 39 57 21 31 - - 0.0
31/08:00pm 6.8 -1.9 6.2 96 0.3 SSW 41 61 22 33 - - 0.0
31/07:32pm 6.7 -1.1 6.6 99 0.0 SSW 37 57 20 31 - - 0.0
31/07:30pm 6.9 -0.5 6.8 99 0.0 SSW 35 52 19 28 - - 0.0
31/07:16pm 7.0 -1.9 6.7 98 0.1 SSW 43 63 23 34 - - 0.0
31/07:00pm 7.4 -1.8 6.3 93 0.5 SSW 44 57 24 31 - - 0.0
31/06:30pm 7.9 -1.1 6.2 89 0.8 SSW 43 67 23 36 - - 0.0
31/06:28pm 8.2 -0.7 6.7 90 0.7 SSW 43 67 23 36 - - 0.0
31/06:00pm 8.6 0.8 6.7 88 0.9 SSW 37 54 20 29 - - 0.0
31/05:30pm 9.7 2.3 6.6 81 1.5 SSW 35 61 19 33 - - 0.0
31/05:00pm 8.5 1.6 7.3 92 0.6 SSW 33 54 18 29 - - 0.0
31/04:30pm 8.6 2.7 7.5 93 0.6 SW 28 48 15 26 - - 0.0
31/04:13pm 9.3 3.4 7.3 87 1.0 SSW 28 54 15 29 - - 0.0
31/04:00pm 9.6 3.3 7.5 87 1.1 SSW 30 44 16 24 - - 0.0
31/03:30pm 9.1 4.0 7.5 90 0.8 SW 24 43 13 23 - - 0.0
31/03:00pm 8.6 2.7 7.4 92 0.6 SW 28 50 15 27 - - 0.0
31/02:59pm 8.7 2.8 7.3 91 0.7 SW 28 50 15 27 - - 0.0
31/02:30pm 9.9 5.4 7.0 82 1.5 SSW 20 41 11 22 - - 0.0
31/02:00pm 10.9 6.6 6.8 76 2.1 SW 19 37 10 20 - - 0.0
31/01:30pm 10.9 6.0 6.8 76 2.1 SW 22 39 12 21 - - 0.0
31/01:00pm 10.2 5.2 6.5 78 1.9 SSW 22 41 12 22 - - 0.0
31/12:30pm 9.8 4.9 6.7 81 1.6 SW 22 33 12 18 - - 0.0
31/12:00pm 8.7 3.8 8.6 99 0.1 SSW 24 37 13 20 - - 0.0
31/11:30am 7.9 2.5 7.8 99 0.1 SSW 26 43 14 23 - - 0.0
31/11:00am 7.0 1.0 6.9 99 0.0 SSW 28 43 15 23 - - 0.0
31/10:30am 6.9 -0.1 6.8 99 0.0 S 33 48 18 26 - - 0.0
31/10:01am 6.7 -0.4 6.6 99 0.0 S 33 52 18 28 - - 0.0
31/10:00am 6.7 -0.7 6.6 99 0.0 S 35 52 19 28 - - 0.0
31/09:30am 6.3 -1.2 6.2 99 0.0 S 35 56 19 30 - - 0.0
31/09:00am 6.5 -2.5 6.4 99 0.0 S 43 56 23 30 - - 0.2
31/08:40am 6.3 -2.7 6.2 99 0.0 S 43 61 23 33 - - 0.2
31/08:30am 6.4 -3.6 6.3 99 0.0 S 48 63 26 34 - - 0.2
31/08:00am 6.5 -3.8 6.4 99 0.0 S 50 63 27 34 - - 0.2
31/07:38am 6.2 -4.2 6.1 99 0.0 S 50 69 27 37 - - 0.2
31/07:30am 6.1 -4.7 6.0 99 0.0 S 52 67 28 36 - - 0.2
31/07:00am 5.9 -3.8 5.8 99 0.0 S 46 59 25 32 - - 0.2
31/06:49am 5.8 -4.3 5.7 99 0.0 S 48 69 26 37 - - 0.2
31/06:30am 5.7 -4.4 5.6 99 0.0 S 48 57 26 31 - - 0.2
31/06:00am 5.8 -3.9 5.7 99 0.0 S 46 61 25 33 - - 0.2
31/05:30am 6.0 -4.1 5.9 99 0.0 S 48 65 26 35 - - 0.2
31/05:00am 5.7 -4.8 5.6 99 0.0 S 50 69 27 37 - - 0.2
31/04:30am 5.6 -5.3 5.5 99 0.0 S 52 63 28 34 - - 0.2
31/04:00am 5.8 -4.3 5.7 99 0.0 SSW 48 63 26 34 - - 0.2
31/03:30am 5.5 -5.0 5.4 99 0.0 S 50 59 27 32 - - 0.2
31/03:00am 6.0 -4.1 5.9 99 0.0 S 48 61 26 33 - - 0.0
31/02:30am 5.8 -4.3 5.7 99 0.0 S 48 63 26 34 - - 0.0
31/02:00am 6.0 -3.7 5.9 99 0.0 S 46 57 25 31 - - 0.0
31/01:30am 6.1 -2.2 6.0 99 0.0 S 39 54 21 29 - - 0.0
31/01:16am 6.1 -1.8 6.0 99 0.0 S 37 56 20 30 - - 0.0
31/01:00am 6.3 0.1 6.2 99 0.0 S 28 46 15 25 - - 0.0
31/12:52am 6.3 -0.7 6.2 99 0.0 S 32 50 17 27 - - 0.0
31/12:30am 6.4 -0.1 6.3 99 0.0 S 30 46 16 25 - - 0.0
31/12:00am 6.1 -1.1 6.0 99 0.0 S 33 48 18 26 - - 0.0
 
Date/Time
EDT
Temp
°C
App
Temp
°C
Dew
Point
Rel
Hum
%
Delta-T
°C
Wind Press
QNH
hPa
Press
MSL
hPa
Rain
since 9 am
mm
Dir
 
Spd
km/h
Gust
km/h
Spd
kts
Gust
kts
30/11:30pm 5.6 -3.2 5.5 99 0.0 S 41 48 22 26 - - 0.0
30/11:00pm 5.7 -2.1 5.0 95 0.3 SSW 35 44 19 24 - - 0.0
30/10:30pm 6.2 -0.4 6.1 99 0.0 SSW 30 44 16 24 - - 0.0
30/10:00pm 6.7 0.6 6.6 99 0.0 SSW 28 43 15 23 - - 0.0
30/09:30pm 6.9 0.0 6.3 96 0.3 SSW 32 44 17 24 - - 0.0
30/09:00pm 7.1 0.0 5.7 91 0.7 SSW 32 46 17 25 - - 0.0
30/08:30pm 7.9 1.1 5.0 82 1.4 SSW 30 39 16 21 - - 0.0
30/08:00pm 9.0 1.8 5.7 80 1.6 SSW 33 43 18 23 - - 0.0
30/07:30pm 10.1 3.3 5.3 72 2.3 SSW 30 46 16 25 - - 0.0
30/07:28pm 10.3 4.0 5.5 72 2.4 SSW 28 46 15 25 - - 0.0
30/07:00pm 11.0 4.6 5.3 68 2.8 SSW 28 41 15 22 - - 0.0
30/06:30pm 11.9 5.9 5.3 64 3.3 SSW 26 46 14 25 - - 0.0
30/06:00pm 11.3 6.0 5.2 66 3.0 SSW 22 35 12 19 - - 0.0
30/05:30pm 14.1 9.6 6.2 59 4.0 SSW 19 32 10 17 - - 0.0
30/05:00pm 13.5 9.0 5.9 60 3.8 SSW 19 33 10 18 - - 0.0
30/04:30pm 13.6 8.8 5.5 58 4.1 SSW 20 33 11 18 - - 0.0
30/04:00pm 13.9 10.1 5.8 58 4.1 SSW 15 28 8 15 - - 0.0
30/03:30pm 13.4 10.1 6.3 62 3.6 SSW 13 22 7 12 - - 0.0
30/03:00pm 12.4 8.9 5.3 62 3.5 SW 13 32 7 17 - - 0.0
30/02:30pm 11.5 7.5 4.9 64 3.2 SSW 15 24 8 13 - - 0.0
30/02:00pm 11.1 7.9 5.0 66 3.0 SSW 11 19 6 10 - - 0.0
30/01:30pm 10.2 5.8 5.0 70 2.5 SW 17 32 9 17 - - 0.0
30/01:00pm 11.1 6.9 5.8 70 2.6 S 17 32 9 17 - - 0.0
30/12:30pm 11.5 6.8 6.2 70 2.7 S 20 32 11 17 - - 0.0
30/12:00pm 9.4 4.7 5.0 74 2.1 S 19 35 10 19 - - 0.0
30/11:30am 10.6 6.6 6.7 77 2.0 SSE 17 30 9 16 - - 0.0
30/11:00am 8.6 4.9 7.8 95 0.4 S 17 35 9 19 - - 0.0
30/10:30am 7.3 2.9 7.2 99 0.0 S 20 28 11 15 - - 0.0
30/10:00am 6.5 1.9 6.4 99 0.0 SSE 20 41 11 22 - - 0.0
30/09:30am 7.2 3.3 7.1 99 0.0 SSE 17 28 9 15 - - 0.0
30/09:00am 6.5 1.5 6.4 99 0.0 SSE 22 33 12 18 - - 0.0
30/08:30am 6.1 0.6 6.0 99 0.0 SSE 24 37 13 20 - - 0.0
30/08:00am 5.7 0.1 5.6 99 0.0 SSE 24 37 13 20 - - 0.0
30/07:30am 5.8 0.3 5.7 99 0.0 SE 24 37 13 20 - - 0.0
30/07:00am 5.9 -0.4 5.8 99 0.0 SSE 28 43 15 23 - - 0.0
30/06:30am 6.0 -0.3 5.9 99 0.0 SSE 28 46 15 25 - - 0.0
30/06:02am 6.1 -0.5 6.0 99 0.0 SE 30 50 16 27 - - 0.0
30/06:00am 6.0 -1.0 5.9 99 0.0 SE 32 50 17 27 - - 0.0
30/05:55am 6.1 -0.1 6.0 99 0.0 SE 28 50 15 27 - - 0.0
30/05:30am 6.0 0.5 5.9 99 0.0 SE 24 39 13 21 - - 0.0
30/05:00am 6.0 1.5 5.9 99 0.0 ESE 19 35 10 19 - - 0.0
30/04:30am 6.2 1.7 6.1 99 0.0 ESE 19 35 10 19 - - 0.0
30/04:00am 6.3 1.6 6.2 99 0.0 ESE 20 32 11 17 - - 0.0
30/03:30am 6.3 0.9 6.2 99 0.0 ESE 24 35 13 19 - - 0.0
30/03:00am 6.3 -0.7 6.2 99 0.0 E 32 48 17 26 - - 0.0
30/02:45am 6.4 -0.1 6.3 99 0.0 ESE 30 48 16 26 - - 0.0
30/02:30am 6.3 0.5 6.2 99 0.0 ESE 26 43 14 23 - - 0.0
30/02:00am 6.4 0.2 6.3 99 0.0 ESE 28 56 15 30 - - 0.0
30/01:30am 6.4 1.0 6.3 99 0.0 ESE 24 46 13 25 - - 0.0
30/01:00am 6.2 0.7 6.1 99 0.0 ESE 24 39 13 21 - - 0.0
30/12:30am 6.1 -0.5 6.0 99 0.0 SE 30 44 16 24 - - 0.0
30/12:00am 5.9 0.4 5.8 99 0.0 ESE 24 41 13 22 - - 0.0
 
Date/Time
EDT
Temp
°C
App
Temp
°C
Dew
Point
Rel
Hum
%
Delta-T
°C
Wind Press
QNH
hPa
Press
MSL
hPa
Rain
since 9 am
mm
Dir
 
Spd
km/h
Gust
km/h
Spd
kts
Gust
kts
29/11:30pm 5.8 -0.5 5.7 99 0.0 SE 28 44 15 24 - - 0.0
29/11:00pm 6.0 -1.1 5.4 96 0.3 SE 32 50 17 27 - - 0.0
29/10:30pm 6.3 -0.5 5.1 92 0.6 SE 30 50 16 27 - - 0.0
29/10:00pm 6.8 0.4 5.0 88 0.8 ESE 28 50 15 27 - - 0.0
29/09:30pm 7.4 0.9 4.5 82 1.4 SE 28 52 15 28 - - 0.0
29/09:00pm 8.2 1.6 4.4 77 1.8 SE 28 50 15 27 - - 0.0
29/08:59pm 8.3 1.7 4.3 76 1.9 SE 28 50 15 27 - - 0.0
29/08:30pm 9.1 3.1 3.3 67 2.7 SSE 24 41 13 22 - - 0.0
29/08:07pm 10.0 3.1 2.6 60 3.4 S 28 52 15 28 - - 0.0
29/08:00pm 10.3 4.1 2.4 58 3.6 S 24 46 13 25 - - 0.0
29/07:30pm 11.0 3.3 2.1 54 4.1 S 32 56 17 30 - - 0.0
29/07:27pm 11.2 4.2 2.2 54 4.1 S 28 52 15 28 - - 0.0
29/07:00pm 11.9 5.7 2.4 52 4.4 SSE 24 50 13 27 - - 0.0
29/06:31pm 12.3 5.5 3.3 54 4.3 SSE 28 48 15 26 - - 0.0
29/06:30pm 12.3 5.9 3.3 54 4.3 SSE 26 48 14 26 - - 0.0

Other Formats:

Comma delimited format used in spreadsheet applications
http://www.bom.gov.au/fwo/IDV60801/IDV60801.94833.axf

JavaScript Object Notation format (JSON) in row-major order
http://www.bom.gov.au/fwo/IDV60801/IDV60801.94833.json